sensor_id;sensor_type;location;lat;lon;timestamp;pressure;altitude;pressure_sealevel;temperature;humidity
63500;BME280;49654;51.142;14.924;2023-11-21T00:02:27;98447.47;;;8.86;85.35
63500;BME280;49654;51.142;14.924;2023-11-21T00:04:54;98448.47;;;8.85;85.27
63500;BME280;49654;51.142;14.924;2023-11-21T00:07:21;98414.31;;;8.75;84.82
63500;BME280;49654;51.142;14.924;2023-11-21T00:09:48;98427.09;;;8.98;84.49
63500;BME280;49654;51.142;14.924;2023-11-21T00:12:15;98454.72;;;9.27;83.55
63500;BME280;49654;51.142;14.924;2023-11-21T00:14:44;98445.81;;;9.15;83.72
63500;BME280;49654;51.142;14.924;2023-11-21T00:17:11;98414.72;;;8.93;83.67
63500;BME280;49654;51.142;14.924;2023-11-21T00:19:47;98446.56;;;9.09;84.16
63500;BME280;49654;51.142;14.924;2023-11-21T00:22:14;98343.81;;;8.58;84.62
63500;BME280;49654;51.142;14.924;2023-11-21T00:24:42;98447.03;;;9.34;83.81
63500;BME280;49654;51.142;14.924;2023-11-21T00:27:09;98446.28;;;9.40;83.36
63500;BME280;49654;51.142;14.924;2023-11-21T00:29:36;98372.84;;;8.90;82.85
63500;BME280;49654;51.142;14.924;2023-11-21T00:32:06;98424.44;;;9.27;82.68
63500;BME280;49654;51.142;14.924;2023-11-21T00:34:33;98421.28;;;9.32;82.51
63500;BME280;49654;51.142;14.924;2023-11-21T00:37:00;98363.44;;;8.67;82.44
63500;BME280;49654;51.142;14.924;2023-11-21T00:39:28;98428.44;;;8.94;83.34
63500;BME280;49654;51.142;14.924;2023-11-21T00:41:55;98453.50;;;9.23;83.23
63500;BME280;49654;51.142;14.924;2023-11-21T00:44:22;98373.59;;;8.69;83.08
63500;BME280;49654;51.142;14.924;2023-11-21T00:46:50;98382.78;;;8.71;82.53
63500;BME280;49654;51.142;14.924;2023-11-21T00:49:18;98428.59;;;9.07;82.83
63500;BME280;49654;51.142;14.924;2023-11-21T00:51:46;98324.38;;;8.33;83.17
63500;BME280;49654;51.142;14.924;2023-11-21T00:54:13;98442.66;;;8.98;83.67
63500;BME280;49654;51.142;14.924;2023-11-21T00:56:43;98452.00;;;8.99;83.10
63500;BME280;49654;51.142;14.924;2023-11-21T00:59:10;98436.84;;;8.96;83.36
63500;BME280;49654;51.142;14.924;2023-11-21T01:01:37;98464.75;;;9.15;83.64
63500;BME280;49654;51.142;14.924;2023-11-21T01:04:05;98377.63;;;8.71;82.90
63500;BME280;49654;51.142;14.924;2023-11-21T01:06:34;98461.81;;;9.18;83.28
63500;BME280;49654;51.142;14.924;2023-11-21T01:09:01;98400.88;;;8.86;83.10
63500;BME280;49654;51.142;14.924;2023-11-21T01:11:34;98438.84;;;9.15;82.95
63500;BME280;49654;51.142;14.924;2023-11-21T01:14:02;98453.56;;;9.30;83.33
63500;BME280;49654;51.142;14.924;2023-11-21T01:16:30;98420.47;;;9.10;83.18
63500;BME280;49654;51.142;14.924;2023-11-21T01:18:58;98418.34;;;8.99;83.00
63500;BME280;49654;51.142;14.924;2023-11-21T01:21:25;98376.72;;;8.79;82.79
63500;BME280;49654;51.142;14.924;2023-11-21T01:23:55;98300.41;;;8.39;82.76
63500;BME280;49654;51.142;14.924;2023-11-21T01:26:21;98437.41;;;9.27;82.47
63500;BME280;49654;51.142;14.924;2023-11-21T01:28:48;98388.75;;;8.87;82.65
63500;BME280;49654;51.142;14.924;2023-11-21T01:31:16;98412.56;;;8.97;82.97
63500;BME280;49654;51.142;14.924;2023-11-21T01:33:44;98439.75;;;9.22;82.76
63500;BME280;49654;51.142;14.924;2023-11-21T01:36:11;98403.59;;;9.14;82.03
63500;BME280;49654;51.142;14.924;2023-11-21T01:38:38;98387.56;;;9.04;81.52
63500;BME280;49654;51.142;14.924;2023-11-21T01:41:06;98465.56;;;9.52;81.46
63500;BME280;49654;51.142;14.924;2023-11-21T01:43:33;98479.00;;;9.62;81.64
63500;BME280;49654;51.142;14.924;2023-11-21T01:46:00;98480.75;;;9.76;80.81
63500;BME280;49654;51.142;14.924;2023-11-21T01:48:28;98441.31;;;9.38;81.27
63500;BME280;49654;51.142;14.924;2023-11-21T01:50:55;98473.22;;;9.60;81.42
63500;BME280;49654;51.142;14.924;2023-11-21T01:53:23;98464.75;;;9.51;81.35
63500;BME280;49654;51.142;14.924;2023-11-21T01:55:51;98498.22;;;9.68;81.45
63500;BME280;49654;51.142;14.924;2023-11-21T01:58:21;98418.25;;;9.28;81.41
63500;BME280;49654;51.142;14.924;2023-11-21T02:00:48;98403.16;;;9.32;81.40
63500;BME280;49654;51.142;14.924;2023-11-21T02:03:16;98426.16;;;9.42;80.92
63500;BME280;49654;51.142;14.924;2023-11-21T02:05:44;98426.16;;;9.63;79.98
63500;BME280;49654;51.142;14.924;2023-11-21T02:08:11;98502.63;;;10.17;79.64
63500;BME280;49654;51.142;14.924;2023-11-21T02:10:38;98413.72;;;9.52;80.12
63500;BME280;49654;51.142;14.924;2023-11-21T02:13:06;98429.63;;;9.70;80.12
63500;BME280;49654;51.142;14.924;2023-11-21T02:15:35;98338.72;;;9.22;79.46
63500;BME280;49654;51.142;14.924;2023-11-21T02:18:04;98387.56;;;9.47;79.45
63500;BME280;49654;51.142;14.924;2023-11-21T02:20:32;98344.25;;;8.98;79.54
63500;BME280;49654;51.142;14.924;2023-11-21T02:23:09;98414.44;;;9.46;80.11
63500;BME280;49654;51.142;14.924;2023-11-21T02:25:38;98325.00;;;8.86;80.53
63500;BME280;49654;51.142;14.924;2023-11-21T02:28:08;98507.09;;;10.01;79.65
63500;BME280;49654;51.142;14.924;2023-11-21T02:30:38;98415.81;;;9.42;79.94
63500;BME280;49654;51.142;14.924;2023-11-21T02:33:05;98486.88;;;10.18;79.26
63500;BME280;49654;51.142;14.924;2023-11-21T02:35:33;98397.81;;;9.55;79.42
63500;BME280;49654;51.142;14.924;2023-11-21T02:38:00;98342.34;;;9.28;78.84
63500;BME280;49654;51.142;14.924;2023-11-21T02:40:29;98390.84;;;9.56;78.44
63500;BME280;49654;51.142;14.924;2023-11-21T02:42:56;98446.22;;;9.76;79.22
63500;BME280;49654;51.142;14.924;2023-11-21T02:45:24;98422.72;;;9.56;79.66
63500;BME280;49654;51.142;14.924;2023-11-21T02:47:52;98498.38;;;10.09;79.52
63500;BME280;49654;51.142;14.924;2023-11-21T02:50:22;98497.91;;;9.99;79.62
63500;BME280;49654;51.142;14.924;2023-11-21T02:52:50;98447.78;;;9.70;79.73
63500;BME280;49654;51.142;14.924;2023-11-21T02:55:17;98419.25;;;9.49;79.73
63500;BME280;49654;51.142;14.924;2023-11-21T02:57:45;98502.44;;;10.18;79.29
63500;BME280;49654;51.142;14.924;2023-11-21T03:00:13;98507.81;;;10.17;79.22
63500;BME280;49654;51.142;14.924;2023-11-21T03:02:40;98357.19;;;9.19;79.28
63500;BME280;49654;51.142;14.924;2023-11-21T03:05:08;98507.84;;;10.23;79.11
63500;BME280;49654;51.142;14.924;2023-11-21T03:07:36;98417.59;;;9.63;79.17
63500;BME280;49654;51.142;14.924;2023-11-21T03:10:04;98348.81;;;9.39;78.45
63500;BME280;49654;51.142;14.924;2023-11-21T03:12:32;98349.94;;;9.30;78.34
63500;BME280;49654;51.142;14.924;2023-11-21T03:15:00;98498.47;;;10.22;79.22
63500;BME280;49654;51.142;14.924;2023-11-21T03:17:28;98507.16;;;10.30;78.71
63500;BME280;49654;51.142;14.924;2023-11-21T03:19:55;98452.94;;;9.92;78.97
63500;BME280;49654;51.142;14.924;2023-11-21T03:22:23;98383.75;;;9.43;78.78
63500;BME280;49654;51.142;14.924;2023-11-21T03:24:50;98457.41;;;9.98;79.01
63500;BME280;49654;51.142;14.924;2023-11-21T03:27:24;98504.06;;;10.19;78.89
63500;BME280;49654;51.142;14.924;2023-11-21T03:29:51;98448.13;;;9.89;79.01
63500;BME280;49654;51.142;14.924;2023-11-21T03:32:33;98508.31;;;10.06;79.60
63500;BME280;49654;51.142;14.924;2023-11-21T03:35:22;98473.69;;;9.92;79.24
63500;BME280;49654;51.142;14.924;2023-11-21T03:37:50;98512.69;;;10.05;79.78
63500;BME280;49654;51.142;14.924;2023-11-21T03:40:17;98448.88;;;9.83;78.97
63500;BME280;49654;51.142;14.924;2023-11-21T03:42:44;98506.34;;;10.29;78.55
63500;BME280;49654;51.142;14.924;2023-11-21T03:45:11;98418.94;;;9.59;78.69
63500;BME280;49654;51.142;14.924;2023-11-21T03:47:40;98524.53;;;10.36;78.60
63500;BME280;49654;51.142;14.924;2023-11-21T03:50:08;98422.84;;;9.69;78.41
63500;BME280;49654;51.142;14.924;2023-11-21T03:52:35;98517.97;;;10.33;78.85
63500;BME280;49654;51.142;14.924;2023-11-21T03:55:03;98494.28;;;10.21;78.40
63500;BME280;49654;51.142;14.924;2023-11-21T03:57:30;98494.22;;;10.15;78.91
63500;BME280;49654;51.142;14.924;2023-11-21T03:59:58;98437.38;;;9.92;78.22
63500;BME280;49654;51.142;14.924;2023-11-21T04:02:25;98458.22;;;10.05;78.28
63500;BME280;49654;51.142;14.924;2023-11-21T04:04:55;98515.78;;;10.37;78.17
63500;BME280;49654;51.142;14.924;2023-11-21T04:07:22;98499.00;;;10.11;78.55
63500;BME280;49654;51.142;14.924;2023-11-21T04:09:49;98472.00;;;10.06;78.80
63500;BME280;49654;51.142;14.924;2023-11-21T04:12:16;98524.53;;;10.14;79.07
63500;BME280;49654;51.142;14.924;2023-11-21T04:14:43;98453.03;;;9.77;79.23
63500;BME280;49654;51.142;14.924;2023-11-21T04:17:10;98450.25;;;9.78;79.15
63500;BME280;49654;51.142;14.924;2023-11-21T04:19:37;98496.91;;;10.00;79.20
63500;BME280;49654;51.142;14.924;2023-11-21T04:22:06;98519.75;;;10.11;79.44
63500;BME280;49654;51.142;14.924;2023-11-21T04:24:35;98515.66;;;10.02;79.64
63500;BME280;49654;51.142;14.924;2023-11-21T04:27:02;98524.50;;;10.08;79.68
63500;BME280;49654;51.142;14.924;2023-11-21T04:29:30;98456.66;;;9.61;80.08
63500;BME280;49654;51.142;14.924;2023-11-21T04:31:57;98525.66;;;10.05;80.10
63500;BME280;49654;51.142;14.924;2023-11-21T04:34:24;98481.34;;;9.78;79.43
63500;BME280;49654;51.142;14.924;2023-11-21T04:36:51;98541.88;;;10.07;79.96
63500;BME280;49654;51.142;14.924;2023-11-21T04:39:21;98527.66;;;10.03;79.70
63500;BME280;49654;51.142;14.924;2023-11-21T04:41:48;98435.50;;;9.58;79.01
63500;BME280;49654;51.142;14.924;2023-11-21T04:44:15;98474.91;;;9.96;78.79
63500;BME280;49654;51.142;14.924;2023-11-21T04:46:43;98532.88;;;10.24;78.83
63500;BME280;49654;51.142;14.924;2023-11-21T04:49:10;98450.44;;;9.77;78.80
63500;BME280;49654;51.142;14.924;2023-11-21T04:51:38;98531.72;;;10.12;79.04
63500;BME280;49654;51.142;14.924;2023-11-21T04:54:05;98546.50;;;10.33;78.98
63500;BME280;49654;51.142;14.924;2023-11-21T04:56:34;98403.34;;;9.31;78.93
63500;BME280;49654;51.142;14.924;2023-11-21T04:59:01;98548.56;;;10.23;79.52
63500;BME280;49654;51.142;14.924;2023-11-21T05:01:28;98536.84;;;10.06;79.17
63500;BME280;49654;51.142;14.924;2023-11-21T05:03:55;98460.69;;;9.64;79.10
63500;BME280;49654;51.142;14.924;2023-11-21T05:06:23;98491.72;;;9.78;79.58
63500;BME280;49654;51.142;14.924;2023-11-21T05:08:50;98535.06;;;10.06;79.64
63500;BME280;49654;51.142;14.924;2023-11-21T05:11:25;98393.72;;;9.24;79.31
63500;BME280;49654;51.142;14.924;2023-11-21T05:13:53;98397.75;;;9.27;79.47
63500;BME280;49654;51.142;14.924;2023-11-21T05:16:22;98458.38;;;9.75;79.21
63500;BME280;49654;51.142;14.924;2023-11-21T05:18:49;98507.16;;;10.08;78.82
63500;BME280;49654;51.142;14.924;2023-11-21T05:21:17;98479.00;;;9.84;78.00
63500;BME280;49654;51.142;14.924;2023-11-21T05:23:47;98566.56;;;10.46;78.61
63500;BME280;49654;51.142;14.924;2023-11-21T05:26:15;98522.75;;;10.15;78.67
63500;BME280;49654;51.142;14.924;2023-11-21T05:28:42;98543.78;;;10.20;78.74
63500;BME280;49654;51.142;14.924;2023-11-21T05:31:11;98502.22;;;9.92;79.16
63500;BME280;49654;51.142;14.924;2023-11-21T05:33:38;98546.63;;;10.25;78.89
63500;BME280;49654;51.142;14.924;2023-11-21T05:36:07;98536.91;;;10.12;79.01
63500;BME280;49654;51.142;14.924;2023-11-21T05:38:35;98552.06;;;10.30;79.03
63500;BME280;49654;51.142;14.924;2023-11-21T05:41:03;98555.53;;;10.37;78.50
63500;BME280;49654;51.142;14.924;2023-11-21T05:43:30;98537.28;;;10.09;78.66
63500;BME280;49654;51.142;14.924;2023-11-21T05:45:58;98439.75;;;9.22;79.54
63500;BME280;49654;51.142;14.924;2023-11-21T05:48:26;98516.53;;;9.88;79.84
63500;BME280;49654;51.142;14.924;2023-11-21T05:50:54;98557.47;;;10.14;79.44
63500;BME280;49654;51.142;14.924;2023-11-21T05:53:21;98496.22;;;9.70;79.51
63500;BME280;49654;51.142;14.924;2023-11-21T05:55:48;98521.13;;;9.86;79.43
63500;BME280;49654;51.142;14.924;2023-11-21T05:58:15;98500.50;;;9.77;79.12
63500;BME280;49654;51.142;14.924;2023-11-21T06:00:42;98491.03;;;9.70;79.34
63500;BME280;49654;51.142;14.924;2023-11-21T06:03:10;98458.75;;;9.30;79.86
63500;BME280;49654;51.142;14.924;2023-11-21T06:05:39;98502.53;;;9.61;80.00
63500;BME280;49654;51.142;14.924;2023-11-21T06:08:13;98558.09;;;9.94;80.06
63500;BME280;49654;51.142;14.924;2023-11-21T06:11:24;98609.72;;;10.25;80.19
63500;BME280;49654;51.142;14.924;2023-11-21T06:14:00;98546.66;;;9.89;80.03
63500;BME280;49654;51.142;14.924;2023-11-21T06:16:28;98515.47;;;9.61;80.14
63500;BME280;49654;51.142;14.924;2023-11-21T06:18:55;98567.94;;;9.99;79.96
63500;BME280;49654;51.142;14.924;2023-11-21T06:21:23;98608.81;;;10.18;80.46
63500;BME280;49654;51.142;14.924;2023-11-21T06:23:52;98527.59;;;9.75;80.13
63500;BME280;49654;51.142;14.924;2023-11-21T06:26:19;98617.50;;;10.25;80.56
63500;BME280;49654;51.142;14.924;2023-11-21T06:28:47;98478.84;;;9.27;80.29
63500;BME280;49654;51.142;14.924;2023-11-21T06:31:17;98533.06;;;9.65;80.82
63500;BME280;49654;51.142;14.924;2023-11-21T06:33:44;98572.13;;;10.00;80.30
63500;BME280;49654;51.142;14.924;2023-11-21T06:36:12;98619.09;;;10.26;79.84
63500;BME280;49654;51.142;14.924;2023-11-21T06:38:40;98489.72;;;9.38;80.56
63500;BME280;49654;51.142;14.924;2023-11-21T06:41:07;98536.16;;;9.75;80.06
63500;BME280;49654;51.142;14.924;2023-11-21T06:43:34;98530.97;;;9.75;79.97
63500;BME280;49654;51.142;14.924;2023-11-21T06:46:01;98494.94;;;9.23;80.67
63500;BME280;49654;51.142;14.924;2023-11-21T06:48:30;98564.44;;;9.70;81.35
63500;BME280;49654;51.142;14.924;2023-11-21T06:50:57;98619.81;;;9.99;81.14
63500;BME280;49654;51.142;14.924;2023-11-21T06:53:24;98616.38;;;9.77;81.95
63500;BME280;49654;51.142;14.924;2023-11-21T06:55:53;98614.84;;;9.83;82.19
63500;BME280;49654;51.142;14.924;2023-11-21T06:58:20;98605.72;;;9.72;81.63
63500;BME280;49654;51.142;14.924;2023-11-21T07:00:47;98560.91;;;9.57;81.94
63500;BME280;49654;51.142;14.924;2023-11-21T07:03:18;98499.41;;;9.14;81.50
63500;BME280;49654;51.142;14.924;2023-11-21T07:05:52;98552.53;;;9.40;82.16
63500;BME280;49654;51.142;14.924;2023-11-21T07:08:26;98483.38;;;9.04;81.99
63500;BME280;49654;51.142;14.924;2023-11-21T07:10:55;98511.13;;;9.25;81.77
63500;BME280;49654;51.142;14.924;2023-11-21T07:13:25;98584.03;;;9.58;82.11
63500;BME280;49654;51.142;14.924;2023-11-21T07:18:41;98605.81;;;9.78;81.53
63500;BME280;49654;51.142;14.924;2023-11-21T07:21:08;98630.03;;;9.86;81.92
63500;BME280;49654;51.142;14.924;2023-11-21T07:23:37;98609.06;;;9.66;82.05
63500;BME280;49654;51.142;14.924;2023-11-21T07:26:06;98657.53;;;10.01;82.36
63500;BME280;49654;51.142;14.924;2023-11-21T07:28:35;98655.22;;;10.07;82.04
63500;BME280;49654;51.142;14.924;2023-11-21T07:31:02;98582.88;;;9.61;82.17
63500;BME280;49654;51.142;14.924;2023-11-21T07:33:29;98568.78;;;9.48;82.46
63500;BME280;49654;51.142;14.924;2023-11-21T07:36:00;98557.41;;;9.64;81.90
63500;BME280;49654;51.142;14.924;2023-11-21T07:38:27;98592.97;;;9.92;81.26
63500;BME280;49654;51.142;14.924;2023-11-21T07:40:55;98512.56;;;9.49;81.10
63500;BME280;49654;51.142;14.924;2023-11-21T07:43:27;98648.66;;;10.11;81.98
63500;BME280;49654;51.142;14.924;2023-11-21T07:46:06;98562.47;;;9.72;81.50
63500;BME280;49654;51.142;14.924;2023-11-21T07:48:35;98602.78;;;9.75;81.21
63500;BME280;49654;51.142;14.924;2023-11-21T07:51:04;98573.50;;;9.60;81.46
63500;BME280;49654;51.142;14.924;2023-11-21T07:53:35;98651.75;;;10.21;81.51
63500;BME280;49654;51.142;14.924;2023-11-21T07:56:03;98632.09;;;9.90;81.94
63500;BME280;49654;51.142;14.924;2023-11-21T07:58:32;98537.63;;;9.27;82.32
63500;BME280;49654;51.142;14.924;2023-11-21T08:00:59;98656.47;;;9.96;82.68
63500;BME280;49654;51.142;14.924;2023-11-21T08:03:27;98597.91;;;9.50;81.94
63500;BME280;49654;51.142;14.924;2023-11-21T08:05:55;98583.88;;;9.45;82.05
63500;BME280;49654;51.142;14.924;2023-11-21T08:08:23;98605.75;;;9.57;82.87
63500;BME280;49654;51.142;14.924;2023-11-21T08:10:51;98517.47;;;8.93;82.72
63500;BME280;49654;51.142;14.924;2023-11-21T08:13:22;98670.97;;;9.90;82.70
63500;BME280;49654;51.142;14.924;2023-11-21T08:15:53;98642.16;;;9.64;83.39
63500;BME280;49654;51.142;14.924;2023-11-21T08:18:21;98673.19;;;9.93;83.80
63500;BME280;49654;51.142;14.924;2023-11-21T08:20:48;98587.06;;;9.25;83.68
63500;BME280;49654;51.142;14.924;2023-11-21T08:23:16;98620.34;;;9.43;83.80
63500;BME280;49654;51.142;14.924;2023-11-21T08:25:44;98631.78;;;9.49;83.98
63500;BME280;49654;51.142;14.924;2023-11-21T08:28:11;98572.28;;;9.41;83.50
63500;BME280;49654;51.142;14.924;2023-11-21T08:30:40;98621.81;;;9.67;83.23
63500;BME280;49654;51.142;14.924;2023-11-21T08:33:09;98674.06;;;10.15;82.79
63500;BME280;49654;51.142;14.924;2023-11-21T08:35:37;98630.88;;;9.93;82.16
63500;BME280;49654;51.142;14.924;2023-11-21T08:38:04;98586.03;;;9.56;82.05
63500;BME280;49654;51.142;14.924;2023-11-21T08:40:32;98559.91;;;9.21;82.47
63500;BME280;49654;51.142;14.924;2023-11-21T08:42:59;98560.13;;;9.41;82.41
63500;BME280;49654;51.142;14.924;2023-11-21T08:45:26;98614.75;;;9.76;82.01
63500;BME280;49654;51.142;14.924;2023-11-21T08:47:53;98564.75;;;9.46;81.84
63500;BME280;49654;51.142;14.924;2023-11-21T08:50:27;98642.91;;;9.94;82.25
63500;BME280;49654;51.142;14.924;2023-11-21T08:53:06;98536.47;;;9.30;82.21
63500;BME280;49654;51.142;14.924;2023-11-21T08:55:49;98541.31;;;9.18;82.25
63500;BME280;49654;51.142;14.924;2023-11-21T08:58:32;98608.47;;;9.49;82.33
63500;BME280;49654;51.142;14.924;2023-11-21T09:01:18;98534.94;;;9.20;82.78
63500;BME280;49654;51.142;14.924;2023-11-21T09:04:08;98539.22;;;9.28;81.86
63500;BME280;49654;51.142;14.924;2023-11-21T09:06:37;98642.00;;;9.87;81.76
63500;BME280;49654;51.142;14.924;2023-11-21T09:09:07;98715.44;;;10.23;82.31
63500;BME280;49654;51.142;14.924;2023-11-21T09:11:36;98686.00;;;9.95;82.76
63500;BME280;49654;51.142;14.924;2023-11-21T09:14:05;98612.66;;;9.65;82.77
63500;BME280;49654;51.142;14.924;2023-11-21T09:16:32;98694.84;;;10.00;82.38
63500;BME280;49654;51.142;14.924;2023-11-21T09:18:59;98683.75;;;10.07;83.26
63500;BME280;49654;51.142;14.924;2023-11-21T09:21:26;98636.94;;;9.78;82.47
63500;BME280;49654;51.142;14.924;2023-11-21T09:23:54;98720.38;;;10.33;82.67
63500;BME280;49654;51.142;14.924;2023-11-21T09:26:21;98598.84;;;9.79;82.38
63500;BME280;49654;51.142;14.924;2023-11-21T09:28:48;98706.22;;;10.57;81.69
63500;BME280;49654;51.142;14.924;2023-11-21T09:31:16;98623.41;;;10.19;81.27
63500;BME280;49654;51.142;14.924;2023-11-21T09:33:43;98642.25;;;10.07;80.72
63500;BME280;49654;51.142;14.924;2023-11-21T09:36:13;98686.03;;;10.52;81.61
63500;BME280;49654;51.142;14.924;2023-11-21T09:38:40;98727.81;;;10.79;80.34
63500;BME280;49654;51.142;14.924;2023-11-21T09:41:17;98727.56;;;10.16;82.51
63500;BME280;49654;51.142;14.924;2023-11-21T09:43:47;98640.22;;;9.87;81.92
63500;BME280;49654;51.142;14.924;2023-11-21T09:46:20;98720.88;;;10.43;81.83
63500;BME280;49654;51.142;14.924;2023-11-21T09:48:51;98726.41;;;10.55;81.41
63500;BME280;49654;51.142;14.924;2023-11-21T09:51:19;98733.38;;;10.76;81.40
63500;BME280;49654;51.142;14.924;2023-11-21T09:53:50;98720.53;;;10.46;80.97
63500;BME280;49654;51.142;14.924;2023-11-21T09:56:19;98719.84;;;10.59;80.94
63500;BME280;49654;51.142;14.924;2023-11-21T09:58:51;98729.59;;;10.57;81.50
63500;BME280;49654;51.142;14.924;2023-11-21T10:01:19;98741.59;;;10.37;81.15
63500;BME280;49654;51.142;14.924;2023-11-21T10:03:47;98657.81;;;9.92;80.80
63500;BME280;49654;51.142;14.924;2023-11-21T10:06:15;98659.38;;;9.42;80.86
63500;BME280;49654;51.142;14.924;2023-11-21T10:08:45;98757.81;;;9.79;81.33
63500;BME280;49654;51.142;14.924;2023-11-21T10:11:14;98749.94;;;9.88;81.87
63500;BME280;49654;51.142;14.924;2023-11-21T10:13:43;98722.03;;;9.75;80.85
63500;BME280;49654;51.142;14.924;2023-11-21T10:16:14;98760.56;;;9.93;80.59
63500;BME280;49654;51.142;14.924;2023-11-21T10:18:42;98757.91;;;9.71;80.86
63500;BME280;49654;51.142;14.924;2023-11-21T10:21:11;98682.72;;;8.74;81.93
63500;BME280;49654;51.142;14.924;2023-11-21T10:23:39;98743.75;;;8.92;83.32
63500;BME280;49654;51.142;14.924;2023-11-21T10:26:08;98734.06;;;9.23;82.11
63500;BME280;49654;51.142;14.924;2023-11-21T10:28:54;98772.00;;;9.54;81.79
63500;BME280;49654;51.142;14.924;2023-11-21T10:31:22;98770.78;;;9.79;81.00
63500;BME280;49654;51.142;14.924;2023-11-21T10:33:50;98775.59;;;9.83;80.99
63500;BME280;49654;51.142;14.924;2023-11-21T10:36:25;98706.03;;;9.42;80.81
63500;BME280;49654;51.142;14.924;2023-11-21T10:38:53;98701.22;;;9.39;80.06
63500;BME280;49654;51.142;14.924;2023-11-21T10:41:20;98754.50;;;9.86;79.33
63500;BME280;49654;51.142;14.924;2023-11-21T10:43:53;98774.09;;;10.03;79.37
63500;BME280;49654;51.142;14.924;2023-11-21T10:46:21;98792.78;;;10.13;79.47
63500;BME280;49654;51.142;14.924;2023-11-21T10:48:52;98767.94;;;9.89;79.14
63500;BME280;49654;51.142;14.924;2023-11-21T10:51:20;98777.22;;;9.84;79.42
63500;BME280;49654;51.142;14.924;2023-11-21T10:53:47;98744.63;;;9.37;79.11
63500;BME280;49654;51.142;14.924;2023-11-21T10:56:18;98775.25;;;9.56;79.33
63500;BME280;49654;51.142;14.924;2023-11-21T10:58:49;98788.06;;;9.35;79.47
63500;BME280;49654;51.142;14.924;2023-11-21T11:01:18;98789.25;;;9.09;81.00
63500;BME280;49654;51.142;14.924;2023-11-21T11:03:47;98783.84;;;9.19;80.99
63500;BME280;49654;51.142;14.924;2023-11-21T11:06:14;98794.16;;;9.04;80.67
63500;BME280;49654;51.142;14.924;2023-11-21T11:08:42;98795.13;;;9.03;81.03
63500;BME280;49654;51.142;14.924;2023-11-21T11:11:09;98795.47;;;9.38;80.73
63500;BME280;49654;51.142;14.924;2023-11-21T11:13:37;98774.97;;;9.51;79.78
63500;BME280;49654;51.142;14.924;2023-11-21T11:16:08;98799.47;;;9.63;79.23
63500;BME280;49654;51.142;14.924;2023-11-21T11:18:36;98806.09;;;9.66;78.79
63500;BME280;49654;51.142;14.924;2023-11-21T11:21:14;98809.34;;;9.45;78.98
63500;BME280;49654;51.142;14.924;2023-11-21T11:23:58;98822.00;;;9.25;79.65
63500;BME280;49654;51.142;14.924;2023-11-21T11:26:42;98790.50;;;8.90;79.32
63500;BME280;49654;51.142;14.924;2023-11-21T11:29:18;98775.16;;;8.89;79.53
63500;BME280;49654;51.142;14.924;2023-11-21T11:31:58;98826.31;;;9.10;78.94
63500;BME280;49654;51.142;14.924;2023-11-21T11:34:33;98823.44;;;9.05;80.18
63500;BME280;49654;51.142;14.924;2023-11-21T11:37:05;98832.44;;;9.17;79.88
63500;BME280;49654;51.142;14.924;2023-11-21T11:39:35;98843.88;;;8.99;79.67
63500;BME280;49654;51.142;14.924;2023-11-21T11:42:06;98808.94;;;8.95;80.11
63500;BME280;49654;51.142;14.924;2023-11-21T11:44:49;98838.72;;;8.99;79.79
63500;BME280;49654;51.142;14.924;2023-11-21T11:47:22;98744.16;;;8.26;80.12
63500;BME280;49654;51.142;14.924;2023-11-21T11:49:58;98836.72;;;8.78;79.45
63500;BME280;49654;51.142;14.924;2023-11-21T11:52:32;98821.94;;;8.87;80.28
63500;BME280;49654;51.142;14.924;2023-11-21T11:55:00;98840.94;;;9.02;79.59
63500;BME280;49654;51.142;14.924;2023-11-21T11:57:30;98826.09;;;8.96;79.33
63500;BME280;49654;51.142;14.924;2023-11-21T12:00:17;98834.34;;;8.69;78.81
63500;BME280;49654;51.142;14.924;2023-11-21T12:02:48;98845.63;;;8.76;80.37
63500;BME280;49654;51.142;14.924;2023-11-21T12:05:16;98837.44;;;8.64;80.49
63500;BME280;49654;51.142;14.924;2023-11-21T12:07:46;98840.16;;;8.40;80.98
63500;BME280;49654;51.142;14.924;2023-11-21T12:10:15;98855.06;;;8.61;80.85
63500;BME280;49654;51.142;14.924;2023-11-21T12:12:45;98841.59;;;8.34;80.90
63500;BME280;49654;51.142;14.924;2023-11-21T12:15:15;98842.03;;;8.54;80.77
63500;BME280;49654;51.142;14.924;2023-11-21T12:17:43;98859.09;;;8.71;80.08
63500;BME280;49654;51.142;14.924;2023-11-21T12:20:15;98861.59;;;8.57;79.74
63500;BME280;49654;51.142;14.924;2023-11-21T12:22:44;98872.19;;;8.22;81.10
63500;BME280;49654;51.142;14.924;2023-11-21T12:25:14;98818.91;;;8.05;81.47
63500;BME280;49654;51.142;14.924;2023-11-21T12:27:43;98864.72;;;8.44;81.47
63500;BME280;49654;51.142;14.924;2023-11-21T12:30:12;98840.81;;;8.25;80.94
63500;BME280;49654;51.142;14.924;2023-11-21T12:32:42;98857.09;;;8.34;80.53
63500;BME280;49654;51.142;14.924;2023-11-21T12:35:10;98868.53;;;8.56;80.99
63500;BME280;49654;51.142;14.924;2023-11-21T12:37:40;98873.63;;;8.41;81.20
63500;BME280;49654;51.142;14.924;2023-11-21T12:40:09;98887.47;;;8.57;80.84
63500;BME280;49654;51.142;14.924;2023-11-21T12:42:39;98863.75;;;8.37;80.64
63500;BME280;49654;51.142;14.924;2023-11-21T12:45:09;98885.94;;;8.23;80.78
63500;BME280;49654;51.142;14.924;2023-11-21T12:47:41;98875.13;;;8.19;81.27
63500;BME280;49654;51.142;14.924;2023-11-21T12:50:09;98886.63;;;8.00;80.85
63500;BME280;49654;51.142;14.924;2023-11-21T12:52:45;98902.59;;;8.20;81.39
63500;BME280;49654;51.142;14.924;2023-11-21T12:55:15;98898.09;;;8.06;80.93
63500;BME280;49654;51.142;14.924;2023-11-21T12:57:44;98890.31;;;8.22;81.95
63500;BME280;49654;51.142;14.924;2023-11-21T13:00:12;98914.06;;;8.18;81.74
63500;BME280;49654;51.142;14.924;2023-11-21T13:02:53;98892.44;;;8.11;81.11
63500;BME280;49654;51.142;14.924;2023-11-21T13:05:26;98903.13;;;7.75;81.73
63500;BME280;49654;51.142;14.924;2023-11-21T13:07:56;98912.03;;;7.72;83.32
63500;BME280;49654;51.142;14.924;2023-11-21T13:10:25;98922.19;;;7.90;83.21
63500;BME280;49654;51.142;14.924;2023-11-21T13:12:53;98923.97;;;7.98;82.44